Terminal Aerodrome Forecast
Issued by NWS

Home | Current Version | Previous Version | Text Only | Print | Product List | Glossary On
Versions: 1 2 3 4 5 6 7 8 9 10 11 12 13 14 15 16 17
000
FTUS45 KABQ 240000 AAA
TAFTCC
TAF AMD
KTCC 240016Z 2400/2424 25018G27KT P6SM SKC
     FM240700 30020G27KT P6SM FEW100
     FM241200 36014KT P6SM FEW100
     FM241800 29010G17KT P6SM SKC=

USA.gov is the U.S. government's official web portal to all federal, state and local government web resources and services.